PAL1786 RPVP-RPLL
Flight info
| Callsign | PAL1786 |
|---|---|
| Flight time | 1h 0m |
| Altitude | 37000 |
| Route | DABOY1E DABOY W281 LEGED N884 LUBAN LUBAN3R |
| Aircraft | A21N/M-SDE3FGHIRWY/LB1 |
Departure
| Time | 2026-04-26 14:18 |
|---|---|
| Airport | Puerto Princesa International Airport / PAF Antonio Bautista Air Base (RPVP) |
Arrival
| Time | 2026-04-26 15:19 |
|---|---|
| Airport | Ninoy Aquino International Airport (RPLL) |
| Time | Latitude | Longitude | Altitude | Speed | Heading |
|---|---|---|---|---|---|
| 2026-04-26 13:57 | 9.74502 | 118.75117 | 74 ft | 0 kts | 2° |
| 2026-04-26 14:05 | 9.74493 | 118.75117 | 74 ft | 2 kts | 2° |
| 2026-04-26 14:06 | 9.74478 | 118.75116 | 74 ft | 2 kts | 2° |
| 2026-04-26 14:06 | 9.74463 | 118.75115 | 74 ft | 2 kts | 2° |
| 2026-04-26 14:06 | 9.74452 | 118.75114 | 74 ft | 0 kts | 2° |
| 2026-04-26 14:06 | 9.74438 | 118.75115 | 74 ft | 2 kts | 342° |
| 2026-04-26 14:07 | 9.74424 | 118.75122 | 74 ft | 2 kts | 322° |
| 2026-04-26 14:07 | 9.74414 | 118.75133 | 74 ft | 2 kts | 300° |
| 2026-04-26 14:07 | 9.74409 | 118.75147 | 74 ft | 1 kts | 279° |
| 2026-04-26 14:07 | 9.74408 | 118.75154 | 74 ft | 1 kts | 270° |
| 2026-04-26 14:08 | 9.74408 | 118.75157 | 74 ft | 0 kts | 272° |
| 2026-04-26 14:09 | 9.74408 | 118.75150 | 74 ft | 3 kts | 272° |
| 2026-04-26 14:09 | 9.74411 | 118.75102 | 74 ft | 8 kts | 273° |
| 2026-04-26 14:10 | 9.74414 | 118.75037 | 74 ft | 9 kts | 272° |
| 2026-04-26 14:10 | 9.74417 | 118.74965 | 74 ft | 10 kts | 272° |
| 2026-04-26 14:10 | 9.74420 | 118.74887 | 74 ft | 11 kts | 272° |
| 2026-04-26 14:10 | 9.74424 | 118.74805 | 74 ft | 11 kts | 272° |
| 2026-04-26 14:11 | 9.74424 | 118.74789 | 74 ft | 0 kts | 271° |
| 2026-04-26 14:14 | 9.74424 | 118.74786 | 74 ft | 1 kts | 271° |
| 2026-04-26 14:14 | 9.74424 | 118.74760 | 74 ft | 5 kts | 268° |
| 2026-04-26 14:14 | 9.74410 | 118.74721 | 74 ft | 6 kts | 228° |
| 2026-04-26 14:15 | 9.74367 | 118.74706 | 74 ft | 4 kts | 182° |
| 2026-04-26 14:15 | 9.74360 | 118.74706 | 74 ft | 0 kts | 181° |
| 2026-04-26 14:15 | 9.74359 | 118.74706 | 74 ft | 1 kts | 181° |
| 2026-04-26 14:16 | 9.74328 | 118.74705 | 74 ft | 6 kts | 182° |
| 2026-04-26 14:16 | 9.74281 | 118.74706 | 74 ft | 6 kts | 162° |
| 2026-04-26 14:16 | 9.74257 | 118.74749 | 74 ft | 7 kts | 96° |
| 2026-04-26 14:16 | 9.74254 | 118.74799 | 74 ft | 0 kts | 92° |
| 2026-04-26 14:17 | 9.74250 | 118.74889 | 74 ft | 43 kts | 93° |
| 2026-04-26 14:17 | 9.74227 | 118.75434 | 75 ft | 110 kts | 92° |
| 2026-04-26 14:18 | 9.74183 | 118.76424 | 75 ft | 165 kts | 92° |
| 2026-04-26 14:18 | 9.74119 | 118.77646 | 435 ft | 179 kts | 93° |
| 2026-04-26 14:18 | 9.74019 | 118.78907 | 1067 ft | 180 kts | 92° |
| 2026-04-26 14:18 | 9.74193 | 118.80134 | 1525 ft | 184 kts | 60° |
| 2026-04-26 14:19 | 9.75168 | 118.81018 | 1879 ft | 197 kts | 24° |
| 2026-04-26 14:19 | 9.76551 | 118.81254 | 2314 ft | 208 kts | 7° |
| 2026-04-26 14:19 | 9.78043 | 118.81443 | 2645 ft | 226 kts | 10° |
| 2026-04-26 14:19 | 9.79664 | 118.81694 | 3107 ft | 240 kts | 11° |
| 2026-04-26 14:20 | 9.81317 | 118.81961 | 3869 ft | 240 kts | 11° |
| 2026-04-26 14:20 | 9.82955 | 118.82228 | 4558 ft | 242 kts | 11° |
| 2026-04-26 14:20 | 9.84640 | 118.82504 | 5250 ft | 246 kts | 11° |
| 2026-04-26 14:20 | 9.86339 | 118.82782 | 5958 ft | 249 kts | 12° |
| 2026-04-26 14:21 | 9.88045 | 118.83054 | 6616 ft | 252 kts | 10° |
| 2026-04-26 14:21 | 9.89819 | 118.83209 | 7251 ft | 256 kts | 5° |
| 2026-04-26 14:21 | 9.91645 | 118.83209 | 7652 ft | 271 kts | 1° |
| 2026-04-26 14:21 | 9.93586 | 118.83155 | 8070 ft | 283 kts | 1° |
| 2026-04-26 14:22 | 9.95567 | 118.83092 | 8669 ft | 287 kts | 0° |
| 2026-04-26 14:22 | 9.97579 | 118.83027 | 9288 ft | 290 kts | 0° |
| 2026-04-26 14:22 | 9.99614 | 118.82963 | 9893 ft | 293 kts | 0° |
| 2026-04-26 14:22 | 10.01589 | 118.82903 | 10406 ft | 298 kts | 0° |
| 2026-04-26 14:23 | 10.03722 | 118.82840 | 10676 ft | 313 kts | 0° |
| 2026-04-26 14:23 | 10.05931 | 118.82774 | 10967 ft | 325 kts | 360° |
| 2026-04-26 14:23 | 10.08225 | 118.82705 | 11473 ft | 329 kts | 360° |
| 2026-04-26 14:23 | 10.10543 | 118.82636 | 12046 ft | 331 kts | 360° |
| 2026-04-26 14:24 | 10.12857 | 118.82565 | 12576 ft | 334 kts | 360° |
| 2026-04-26 14:24 | 10.15190 | 118.82494 | 13078 ft | 337 kts | 360° |
| 2026-04-26 14:24 | 10.17554 | 118.82423 | 13584 ft | 340 kts | 360° |
| 2026-04-26 14:24 | 10.19932 | 118.82352 | 14069 ft | 343 kts | 360° |
| 2026-04-26 14:25 | 10.22344 | 118.82280 | 14536 ft | 346 kts | 360° |
| 2026-04-26 14:25 | 10.24761 | 118.82207 | 14990 ft | 349 kts | 360° |
| 2026-04-26 14:25 | 10.27223 | 118.82136 | 15446 ft | 351 kts | 359° |
| 2026-04-26 14:25 | 10.29687 | 118.82063 | 15880 ft | 354 kts | 359° |
| 2026-04-26 14:26 | 10.32165 | 118.81988 | 16306 ft | 357 kts | 359° |
| 2026-04-26 14:26 | 10.34663 | 118.81914 | 16734 ft | 360 kts | 359° |
| 2026-04-26 14:26 | 10.37194 | 118.81838 | 17117 ft | 363 kts | 359° |
| 2026-04-26 14:26 | 10.39725 | 118.81769 | 17496 ft | 365 kts | 0° |
| 2026-04-26 14:27 | 10.42266 | 118.81818 | 17886 ft | 367 kts | 4° |
| 2026-04-26 14:27 | 10.44843 | 118.81982 | 18284 ft | 369 kts | 5° |
| 2026-04-26 14:27 | 10.47395 | 118.82160 | 18676 ft | 371 kts | 5° |
| 2026-04-26 14:27 | 10.50015 | 118.82347 | 19071 ft | 373 kts | 5° |
| 2026-04-26 14:28 | 10.52586 | 118.82530 | 19434 ft | 375 kts | 5° |
| 2026-04-26 14:28 | 10.55198 | 118.82716 | 19807 ft | 376 kts | 5° |
| 2026-04-26 14:28 | 10.57825 | 118.82900 | 20179 ft | 378 kts | 5° |
| 2026-04-26 14:28 | 10.60463 | 118.83086 | 20545 ft | 380 kts | 4° |
| 2026-04-26 14:29 | 10.63116 | 118.83273 | 20897 ft | 381 kts | 4° |
| 2026-04-26 14:29 | 10.65763 | 118.83458 | 21253 ft | 383 kts | 4° |
| 2026-04-26 14:29 | 10.68453 | 118.83647 | 21602 ft | 384 kts | 4° |
| 2026-04-26 14:29 | 10.71136 | 118.83836 | 21953 ft | 385 kts | 4° |
| 2026-04-26 14:30 | 10.73827 | 118.84026 | 22292 ft | 387 kts | 4° |
| 2026-04-26 14:30 | 10.76525 | 118.84215 | 22606 ft | 389 kts | 4° |
| 2026-04-26 14:30 | 10.79234 | 118.84405 | 22908 ft | 392 kts | 4° |
| 2026-04-26 14:30 | 10.81968 | 118.84597 | 23213 ft | 394 kts | 4° |
| 2026-04-26 14:31 | 10.84711 | 118.84789 | 23492 ft | 397 kts | 4° |
| 2026-04-26 14:31 | 10.87505 | 118.84985 | 23776 ft | 400 kts | 4° |
| 2026-04-26 14:31 | 10.90303 | 118.85180 | 24075 ft | 402 kts | 4° |
| 2026-04-26 14:31 | 10.93094 | 118.85376 | 24363 ft | 404 kts | 4° |
| 2026-04-26 14:32 | 10.95895 | 118.85574 | 24646 ft | 407 kts | 4° |
| 2026-04-26 14:32 | 10.98747 | 118.85776 | 24922 ft | 409 kts | 4° |
| 2026-04-26 14:32 | 11.01608 | 118.85978 | 25204 ft | 411 kts | 4° |
| 2026-04-26 14:32 | 11.04472 | 118.86181 | 25485 ft | 413 kts | 4° |
| 2026-04-26 14:33 | 11.07357 | 118.86385 | 25762 ft | 415 kts | 4° |
| 2026-04-26 14:33 | 11.10257 | 118.86590 | 26037 ft | 417 kts | 4° |
| 2026-04-26 14:33 | 11.13243 | 118.86800 | 26302 ft | 420 kts | 4° |
| 2026-04-26 14:33 | 11.16147 | 118.87002 | 26569 ft | 421 kts | 4° |
| 2026-04-26 14:34 | 11.19156 | 118.87211 | 26993 ft | 419 kts | 4° |
| 2026-04-26 14:34 | 11.22088 | 118.87415 | 27353 ft | 419 kts | 4° |
| 2026-04-26 14:34 | 11.24978 | 118.87618 | 27600 ft | 421 kts | 4° |
| 2026-04-26 14:34 | 11.27923 | 118.87824 | 27849 ft | 423 kts | 4° |
| 2026-04-26 14:35 | 11.30882 | 118.88032 | 28102 ft | 425 kts | 4° |
| 2026-04-26 14:35 | 11.33856 | 118.88242 | 28350 ft | 428 kts | 4° |
| 2026-04-26 14:35 | 11.36853 | 118.88454 | 28594 ft | 430 kts | 4° |
| 2026-04-26 14:35 | 11.39828 | 118.88664 | 28847 ft | 432 kts | 4° |
| 2026-04-26 14:36 | 11.42858 | 118.88878 | 29110 ft | 434 kts | 4° |
| 2026-04-26 14:36 | 11.45862 | 118.89090 | 29375 ft | 435 kts | 3° |
| 2026-04-26 14:36 | 11.48917 | 118.89305 | 29642 ft | 437 kts | 3° |
| 2026-04-26 14:36 | 11.51960 | 118.89520 | 29905 ft | 439 kts | 3° |
| 2026-04-26 14:37 | 11.55024 | 118.89736 | 30163 ft | 440 kts | 3° |
| 2026-04-26 14:37 | 11.58102 | 118.89954 | 30421 ft | 442 kts | 3° |
| 2026-04-26 14:37 | 11.61182 | 118.90171 | 30683 ft | 443 kts | 3° |
| 2026-04-26 14:37 | 11.64269 | 118.90389 | 30933 ft | 445 kts | 3° |
| 2026-04-26 14:38 | 11.67338 | 118.90606 | 31176 ft | 447 kts | 3° |
| 2026-04-26 14:38 | 11.70492 | 118.90828 | 31427 ft | 448 kts | 3° |
| 2026-04-26 14:38 | 11.73581 | 118.91045 | 31662 ft | 450 kts | 3° |
| 2026-04-26 14:38 | 11.75696 | 118.91195 | 31823 ft | 451 kts | 3° |
| 2026-04-26 14:39 | 11.79888 | 118.91492 | 32127 ft | 453 kts | 2° |
| 2026-04-26 14:39 | 11.83088 | 118.91718 | 32334 ft | 456 kts | 2° |
| 2026-04-26 14:39 | 11.86237 | 118.91940 | 32536 ft | 458 kts | 2° |
| 2026-04-26 14:39 | 11.89442 | 118.92166 | 32751 ft | 460 kts | 2° |
| 2026-04-26 14:40 | 11.92639 | 118.92392 | 33016 ft | 461 kts | 2° |
| 2026-04-26 14:40 | 11.95862 | 118.92621 | 33366 ft | 460 kts | 2° |
| 2026-04-26 14:40 | 11.99069 | 118.92848 | 33743 ft | 459 kts | 2° |
| 2026-04-26 14:40 | 12.02258 | 118.93075 | 34155 ft | 457 kts | 2° |
| 2026-04-26 14:41 | 12.05431 | 118.93299 | 34549 ft | 455 kts | 2° |
| 2026-04-26 14:41 | 12.08584 | 118.93523 | 34904 ft | 454 kts | 2° |
| 2026-04-26 14:41 | 12.11774 | 118.93749 | 35241 ft | 453 kts | 2° |
| 2026-04-26 14:41 | 12.14919 | 118.93972 | 35496 ft | 453 kts | 2° |
| 2026-04-26 14:42 | 12.18085 | 118.94197 | 35696 ft | 455 kts | 2° |
| 2026-04-26 14:42 | 12.21239 | 118.94421 | 35868 ft | 457 kts | 2° |
| 2026-04-26 14:42 | 12.24451 | 118.94648 | 36057 ft | 458 kts | 2° |
| 2026-04-26 14:42 | 12.27615 | 118.94873 | 36246 ft | 459 kts | 2° |
| 2026-04-26 14:43 | 12.30823 | 118.95100 | 36420 ft | 460 kts | 2° |
| 2026-04-26 14:43 | 12.34019 | 118.95325 | 36604 ft | 461 kts | 2° |
| 2026-04-26 14:43 | 12.37246 | 118.95554 | 36798 ft | 461 kts | 2° |
| 2026-04-26 14:43 | 12.40461 | 118.95782 | 36903 ft | 462 kts | 2° |
| 2026-04-26 14:44 | 12.43643 | 118.96008 | 36904 ft | 462 kts | 2° |
| 2026-04-26 14:44 | 12.50116 | 118.96470 | 36903 ft | 462 kts | 2° |
| 2026-04-26 14:45 | 12.56504 | 118.96925 | 36900 ft | 461 kts | 2° |
| 2026-04-26 14:45 | 12.62948 | 118.97385 | 36899 ft | 461 kts | 2° |
| 2026-04-26 14:46 | 12.69374 | 118.97842 | 36900 ft | 461 kts | 2° |
| 2026-04-26 14:46 | 12.75814 | 118.98302 | 36900 ft | 463 kts | 2° |
| 2026-04-26 14:47 | 12.82230 | 118.98761 | 36900 ft | 463 kts | 2° |
| 2026-04-26 14:47 | 12.88654 | 118.99220 | 36901 ft | 462 kts | 2° |
| 2026-04-26 14:48 | 12.95084 | 118.99899 | 36896 ft | 463 kts | 11° |
| 2026-04-26 14:48 | 13.01132 | 119.02138 | 36901 ft | 465 kts | 27° |
| 2026-04-26 14:49 | 13.06302 | 119.05992 | 36902 ft | 468 kts | 44° |
| 2026-04-26 14:49 | 13.10506 | 119.11117 | 36905 ft | 470 kts | 52° |
| 2026-04-26 14:50 | 13.13987 | 119.15791 | 36902 ft | 470 kts | 52° |
| 2026-04-26 14:50 | 13.17809 | 119.20890 | 36903 ft | 471 kts | 52° |
| 2026-04-26 14:51 | 13.21836 | 119.26230 | 36903 ft | 471 kts | 52° |
| 2026-04-26 14:51 | 13.25847 | 119.31535 | 36902 ft | 472 kts | 52° |
| 2026-04-26 14:52 | 13.29890 | 119.36882 | 36796 ft | 472 kts | 51° |
| 2026-04-26 14:52 | 13.31882 | 119.39518 | 36465 ft | 470 kts | 52° |
| 2026-04-26 14:52 | 13.33888 | 119.42174 | 35989 ft | 468 kts | 52° |
| 2026-04-26 14:52 | 13.35888 | 119.44820 | 35366 ft | 465 kts | 51° |
| 2026-04-26 14:53 | 13.37843 | 119.47409 | 34708 ft | 464 kts | 51° |
| 2026-04-26 14:53 | 13.39814 | 119.50020 | 34023 ft | 463 kts | 51° |
| 2026-04-26 14:53 | 13.41786 | 119.52632 | 33335 ft | 463 kts | 51° |
| 2026-04-26 14:53 | 13.43753 | 119.55238 | 32886 ft | 461 kts | 51° |
| 2026-04-26 14:54 | 13.45716 | 119.57840 | 32471 ft | 460 kts | 51° |
| 2026-04-26 14:54 | 13.47653 | 119.60408 | 32060 ft | 457 kts | 52° |
| 2026-04-26 14:54 | 13.49598 | 119.62986 | 31629 ft | 453 kts | 52° |
| 2026-04-26 14:54 | 13.51541 | 119.65564 | 31183 ft | 450 kts | 52° |
| 2026-04-26 14:55 | 13.53379 | 119.68005 | 30759 ft | 446 kts | 52° |
| 2026-04-26 14:55 | 13.55272 | 119.70517 | 30320 ft | 443 kts | 52° |
| 2026-04-26 14:55 | 13.57156 | 119.73020 | 29881 ft | 439 kts | 52° |
| 2026-04-26 14:55 | 13.59033 | 119.75513 | 29443 ft | 435 kts | 52° |
| 2026-04-26 14:56 | 13.60870 | 119.77955 | 29007 ft | 432 kts | 53° |
| 2026-04-26 14:56 | 13.62689 | 119.80373 | 28575 ft | 429 kts | 53° |
| 2026-04-26 14:56 | 13.64508 | 119.82795 | 28138 ft | 425 kts | 52° |
| 2026-04-26 14:56 | 13.66312 | 119.85199 | 27704 ft | 422 kts | 52° |
| 2026-04-26 14:57 | 13.68099 | 119.87580 | 27265 ft | 419 kts | 52° |
| 2026-04-26 14:57 | 13.69870 | 119.89938 | 26823 ft | 416 kts | 52° |
| 2026-04-26 14:57 | 13.71630 | 119.92283 | 26380 ft | 413 kts | 52° |
| 2026-04-26 14:57 | 13.73377 | 119.94611 | 25938 ft | 410 kts | 52° |
| 2026-04-26 14:58 | 13.75110 | 119.96922 | 25501 ft | 407 kts | 52° |
| 2026-04-26 14:58 | 13.76825 | 119.99210 | 25066 ft | 404 kts | 52° |
| 2026-04-26 14:58 | 13.78546 | 120.01506 | 24633 ft | 401 kts | 51° |
| 2026-04-26 14:58 | 13.80232 | 120.03755 | 24216 ft | 398 kts | 51° |
| 2026-04-26 14:59 | 13.81909 | 120.05992 | 23803 ft | 395 kts | 51° |
| 2026-04-26 14:59 | 13.83575 | 120.08214 | 23573 ft | 385 kts | 51° |
| 2026-04-26 14:59 | 13.85367 | 120.10168 | 23449 ft | 371 kts | 38° |
| 2026-04-26 14:59 | 13.86745 | 120.11212 | 23278 ft | 364 kts | 30° |
| 2026-04-26 15:00 | 13.89760 | 120.12743 | 22728 ft | 359 kts | 21° |
| 2026-04-26 15:00 | 13.92054 | 120.13750 | 22329 ft | 357 kts | 21° |
| 2026-04-26 15:00 | 13.94350 | 120.14754 | 21943 ft | 355 kts | 21° |
| 2026-04-26 15:00 | 13.96614 | 120.15751 | 21555 ft | 353 kts | 21° |
| 2026-04-26 15:01 | 13.98873 | 120.16754 | 21158 ft | 351 kts | 21° |
| 2026-04-26 15:01 | 14.01095 | 120.17748 | 20758 ft | 350 kts | 21° |
| 2026-04-26 15:01 | 14.03342 | 120.18756 | 20355 ft | 349 kts | 21° |
| 2026-04-26 15:01 | 14.05562 | 120.19756 | 19957 ft | 347 kts | 22° |
| 2026-04-26 15:02 | 14.07766 | 120.20748 | 19563 ft | 346 kts | 22° |
| 2026-04-26 15:02 | 14.09964 | 120.21740 | 19160 ft | 345 kts | 22° |
| 2026-04-26 15:02 | 14.12191 | 120.22745 | 18753 ft | 343 kts | 22° |
| 2026-04-26 15:02 | 14.14157 | 120.23632 | 18400 ft | 342 kts | 22° |
| 2026-04-26 15:03 | 14.16337 | 120.24616 | 17997 ft | 340 kts | 22° |
| 2026-04-26 15:03 | 14.18515 | 120.25602 | 17586 ft | 339 kts | 22° |
| 2026-04-26 15:03 | 14.20673 | 120.26577 | 17185 ft | 338 kts | 22° |
| 2026-04-26 15:03 | 14.22813 | 120.27544 | 16775 ft | 337 kts | 22° |
| 2026-04-26 15:04 | 14.24960 | 120.28514 | 16372 ft | 335 kts | 22° |
| 2026-04-26 15:04 | 14.27098 | 120.29481 | 15969 ft | 334 kts | 22° |
| 2026-04-26 15:04 | 14.29233 | 120.30446 | 15566 ft | 332 kts | 23° |
| 2026-04-26 15:04 | 14.31337 | 120.31398 | 15185 ft | 329 kts | 23° |
| 2026-04-26 15:05 | 14.33425 | 120.32344 | 14809 ft | 327 kts | 23° |
| 2026-04-26 15:05 | 14.34139 | 120.32667 | 14676 ft | 326 kts | 23° |
| 2026-04-26 15:05 | 14.37577 | 120.34224 | 14041 ft | 322 kts | 24° |
| 2026-04-26 15:05 | 14.39621 | 120.35149 | 13679 ft | 319 kts | 24° |
| 2026-04-26 15:06 | 14.41651 | 120.36068 | 13316 ft | 316 kts | 24° |
| 2026-04-26 15:06 | 14.43594 | 120.37141 | 12924 ft | 313 kts | 38° |
| 2026-04-26 15:06 | 14.45081 | 120.38754 | 12546 ft | 309 kts | 57° |
| 2026-04-26 15:06 | 14.46171 | 120.40630 | 12196 ft | 306 kts | 60° |
| 2026-04-26 15:07 | 14.48238 | 120.44421 | 11484 ft | 301 kts | 61° |
| 2026-04-26 15:07 | 14.49269 | 120.46298 | 11120 ft | 299 kts | 61° |
| 2026-04-26 15:07 | 14.50293 | 120.48148 | 10761 ft | 297 kts | 61° |
| 2026-04-26 15:08 | 14.51322 | 120.50001 | 10400 ft | 295 kts | 61° |
| 2026-04-26 15:08 | 14.52346 | 120.51839 | 10033 ft | 292 kts | 61° |
| 2026-04-26 15:08 | 14.53348 | 120.53638 | 9672 ft | 290 kts | 61° |
| 2026-04-26 15:08 | 14.54359 | 120.55451 | 9308 ft | 288 kts | 61° |
| 2026-04-26 15:09 | 14.55341 | 120.57214 | 8952 ft | 286 kts | 61° |
| 2026-04-26 15:09 | 14.56328 | 120.58987 | 8590 ft | 284 kts | 61° |
| 2026-04-26 15:09 | 14.57308 | 120.60745 | 8228 ft | 282 kts | 60° |
| 2026-04-26 15:09 | 14.58292 | 120.62509 | 7865 ft | 280 kts | 60° |
| 2026-04-26 15:10 | 14.59255 | 120.64236 | 7509 ft | 278 kts | 60° |
| 2026-04-26 15:10 | 14.59894 | 120.65383 | 7342 ft | 273 kts | 62° |
| 2026-04-26 15:10 | 14.60505 | 120.67786 | 7100 ft | 258 kts | 99° |
| 2026-04-26 15:10 | 14.59804 | 120.69453 | 6874 ft | 253 kts | 128° |
| 2026-04-26 15:11 | 14.58399 | 120.70570 | 6548 ft | 254 kts | 150° |
| 2026-04-26 15:11 | 14.56853 | 120.71416 | 6246 ft | 253 kts | 149° |
| 2026-04-26 15:11 | 14.55296 | 120.72292 | 5928 ft | 251 kts | 148° |
| 2026-04-26 15:11 | 14.53772 | 120.73168 | 5612 ft | 249 kts | 148° |
| 2026-04-26 15:12 | 14.52255 | 120.74048 | 5331 ft | 246 kts | 147° |
| 2026-04-26 15:12 | 14.50790 | 120.74913 | 5127 ft | 240 kts | 147° |
| 2026-04-26 15:12 | 14.49359 | 120.75763 | 4821 ft | 239 kts | 147° |
| 2026-04-26 15:12 | 14.47918 | 120.76622 | 4492 ft | 238 kts | 147° |
| 2026-04-26 15:13 | 14.46476 | 120.77482 | 4214 ft | 235 kts | 147° |
| 2026-04-26 15:13 | 14.45074 | 120.78316 | 4067 ft | 227 kts | 147° |
| 2026-04-26 15:13 | 14.43732 | 120.79110 | 3884 ft | 221 kts | 147° |
| 2026-04-26 15:13 | 14.42454 | 120.79987 | 3569 ft | 217 kts | 130° |
| 2026-04-26 15:14 | 14.41770 | 120.81323 | 3251 ft | 210 kts | 96° |
| 2026-04-26 15:14 | 14.41822 | 120.82800 | 2971 ft | 207 kts | 81° |
| 2026-04-26 15:14 | 14.42089 | 120.84267 | 2672 ft | 205 kts | 78° |
| 2026-04-26 15:14 | 14.42367 | 120.85651 | 2576 ft | 191 kts | 77° |
| 2026-04-26 15:15 | 14.42724 | 120.86904 | 2479 ft | 173 kts | 69° |
| 2026-04-26 15:15 | 14.43184 | 120.87987 | 2442 ft | 153 kts | 64° |
| 2026-04-26 15:15 | 14.43650 | 120.88919 | 2397 ft | 150 kts | 62° |
| 2026-04-26 15:15 | 14.44152 | 120.89858 | 2216 ft | 148 kts | 60° |
| 2026-04-26 15:16 | 14.44664 | 120.90790 | 2055 ft | 145 kts | 60° |
| 2026-04-26 15:16 | 14.45161 | 120.91688 | 1848 ft | 143 kts | 60° |
| 2026-04-26 15:16 | 14.45654 | 120.92575 | 1658 ft | 142 kts | 60° |
| 2026-04-26 15:16 | 14.46144 | 120.93458 | 1472 ft | 141 kts | 59° |
| 2026-04-26 15:17 | 14.46642 | 120.94353 | 1285 ft | 141 kts | 61° |
| 2026-04-26 15:17 | 14.46964 | 120.94933 | 1165 ft | 141 kts | 61° |
| 2026-04-26 15:17 | 14.47620 | 120.96114 | 935 ft | 140 kts | 62° |
| 2026-04-26 15:17 | 14.48105 | 120.96989 | 758 ft | 140 kts | 61° |
| 2026-04-26 15:18 | 14.48589 | 120.97858 | 565 ft | 140 kts | 62° |
| 2026-04-26 15:18 | 14.49073 | 120.98732 | 422 ft | 140 kts | 62° |
| 2026-04-26 15:18 | 14.49560 | 120.99599 | 252 ft | 139 kts | 62° |
| 2026-04-26 15:18 | 14.50031 | 121.00461 | 93 ft | 136 kts | 61° |
| 2026-04-26 15:19 | 14.50442 | 121.01197 | 82 ft | 93 kts | 60° |
| 2026-04-26 15:19 | 14.50681 | 121.01622 | 82 ft | 44 kts | 56° |
| 2026-04-26 15:19 | 14.50804 | 121.01750 | 82 ft | 13 kts | 36° |
| 2026-04-26 15:19 | 14.50876 | 121.01790 | 82 ft | 10 kts | 354° |
| 2026-04-26 15:20 | 14.50898 | 121.01730 | 82 ft | 9 kts | 244° |
| 2026-04-26 15:20 | 14.50864 | 121.01668 | 82 ft | 10 kts | 240° |
| 2026-04-26 15:20 | 14.50827 | 121.01603 | 82 ft | 11 kts | 240° |
| 2026-04-26 15:20 | 14.50788 | 121.01532 | 82 ft | 11 kts | 240° |
| 2026-04-26 15:21 | 14.50746 | 121.01457 | 82 ft | 12 kts | 240° |
| 2026-04-26 15:21 | 14.50702 | 121.01378 | 82 ft | 12 kts | 240° |
| 2026-04-26 15:21 | 14.50657 | 121.01296 | 82 ft | 13 kts | 240° |
| 2026-04-26 15:21 | 14.50609 | 121.01211 | 82 ft | 13 kts | 240° |
| 2026-04-26 15:22 | 14.50561 | 121.01123 | 82 ft | 14 kts | 240° |
| 2026-04-26 15:22 | 14.50511 | 121.01033 | 82 ft | 14 kts | 240° |
| 2026-04-26 15:22 | 14.50460 | 121.00942 | 82 ft | 14 kts | 240° |
| 2026-04-26 15:22 | 14.50434 | 121.00856 | 82 ft | 11 kts | 298° |
| 2026-04-26 15:23 | 14.50498 | 121.00809 | 82 ft | 11 kts | 308° |
| 2026-04-26 15:23 | 14.50515 | 121.00737 | 82 ft | 5 kts | 276° |
| 2026-04-26 15:23 | 14.50518 | 121.00710 | 82 ft | 1 kts | 276° |